createdAt,value
2023-03-29T00:01:34.987Z,9.40
2023-03-29T00:04:04.977Z,9.50
2023-03-29T00:06:33.297Z,9.40
2023-03-29T00:09:01.955Z,9.40
2023-03-29T00:11:29.949Z,9.40
2023-03-29T00:13:59.234Z,9.40
2023-03-29T00:16:27.525Z,9.30
2023-03-29T00:18:55.542Z,9.30
2023-03-29T00:21:23.531Z,9.20
2023-03-29T00:23:51.642Z,9.20
2023-03-29T00:26:19.522Z,9.20
2023-03-29T00:28:47.454Z,9.20
2023-03-29T00:31:18.581Z,9.20
2023-03-29T00:33:47.043Z,9.10
2023-03-29T00:36:16.089Z,9.20
2023-03-29T00:38:44.062Z,9.10
2023-03-29T00:41:12.319Z,9.10
2023-03-29T00:43:57.511Z,9.10
2023-03-29T00:46:27.928Z,9.10
2023-03-29T00:48:59.656Z,9.10
2023-03-29T00:51:32.076Z,9.10
2023-03-29T00:54:02.304Z,9.10
2023-03-29T00:56:34.873Z,9.00
2023-03-29T00:59:06.242Z,9.00
2023-03-29T01:01:43.171Z,9.00
2023-03-29T01:04:18.305Z,9.00
2023-03-29T01:06:50.518Z,9.00
2023-03-29T01:09:21.080Z,9.00
2023-03-29T01:11:52.512Z,9.00
2023-03-29T01:14:26.599Z,9.00
2023-03-29T01:16:59.405Z,9.00
2023-03-29T01:19:34.068Z,9.00
2023-03-29T01:22:10.808Z,9.00
2023-03-29T01:24:50.418Z,9.00
2023-03-29T01:27:25.546Z,8.90
2023-03-29T01:30:00.265Z,8.90
2023-03-29T01:32:35.056Z,9.00
2023-03-29T01:35:10.321Z,9.00
2023-03-29T01:37:42.535Z,8.90
2023-03-29T01:40:11.314Z,8.90
2023-03-29T01:42:47.760Z,8.90
2023-03-29T01:45:23.382Z,8.90
2023-03-29T01:47:58.749Z,8.90
2023-03-29T01:50:37.305Z,8.90
2023-03-29T01:53:08.549Z,8.90
2023-03-29T01:55:40.200Z,8.90
2023-03-29T01:58:11.597Z,8.90
2023-03-29T02:00:43.807Z,8.90
2023-03-29T02:03:14.834Z,8.90
2023-03-29T02:05:43.705Z,8.90
2023-03-29T02:08:14.430Z,8.90
2023-03-29T02:10:42.936Z,8.90
2023-03-29T02:13:11.140Z,8.90
2023-03-29T02:15:40.847Z,8.90
2023-03-29T02:18:08.891Z,8.80
2023-03-29T02:20:40.662Z,8.90
2023-03-29T02:23:14.326Z,8.80
2023-03-29T02:25:43.341Z,8.80
2023-03-29T02:28:11.740Z,8.80
2023-03-29T02:30:47.750Z,8.80
2023-03-29T02:33:19.354Z,8.80
2023-03-29T02:35:53.283Z,8.70
2023-03-29T02:38:21.821Z,8.70
2023-03-29T02:40:49.970Z,8.70
2023-03-29T02:43:18.372Z,8.70
2023-03-29T02:45:48.349Z,8.70
2023-03-29T02:48:20.802Z,8.70
2023-03-29T02:50:51.906Z,8.70
2023-03-29T02:53:24.173Z,8.70
2023-03-29T02:55:52.790Z,8.70
2023-03-29T02:58:20.707Z,8.70
2023-03-29T03:00:50.521Z,8.60
2023-03-29T03:03:18.707Z,8.60
2023-03-29T03:05:46.644Z,8.70
2023-03-29T03:08:15.479Z,8.60
2023-03-29T03:10:43.518Z,8.60
2023-03-29T03:13:11.418Z,8.50
2023-03-29T03:15:42.733Z,8.50
2023-03-29T03:18:12.765Z,8.40
2023-03-29T03:20:40.863Z,8.40
2023-03-29T03:23:09.534Z,8.30
2023-03-29T03:25:37.442Z,8.30
2023-03-29T03:28:05.770Z,8.30
2023-03-29T03:30:34.677Z,8.30
2023-03-29T03:33:02.836Z,8.30
2023-03-29T03:35:32.099Z,8.30
2023-03-29T03:38:00.174Z,8.30
2023-03-29T03:40:28.421Z,8.30
2023-03-29T03:42:56.409Z,8.40
2023-03-29T03:45:24.716Z,8.30
2023-03-29T03:47:52.808Z,8.40
2023-03-29T03:50:20.746Z,8.40
2023-03-29T03:52:49.971Z,8.40
2023-03-29T03:55:17.918Z,8.40
2023-03-29T03:57:45.827Z,8.40
2023-03-29T04:00:20.230Z,8.50
2023-03-29T04:02:49.134Z,8.50
2023-03-29T04:05:18.022Z,8.40
2023-03-29T04:07:45.952Z,8.40
2023-03-29T04:10:15.725Z,8.40
2023-03-29T04:12:43.688Z,8.50
2023-03-29T04:15:12.131Z,8.40
2023-03-29T04:17:40.280Z,8.40
2023-03-29T04:20:12.433Z,8.50
2023-03-29T04:22:41.255Z,8.50
2023-03-29T04:25:11.768Z,8.50
2023-03-29T04:27:41.350Z,8.50
2023-03-29T04:30:13.549Z,8.50
2023-03-29T04:32:41.580Z,8.50
2023-03-29T04:35:11.589Z,8.50
2023-03-29T04:37:40.396Z,8.50
2023-03-29T04:40:09.855Z,8.50
2023-03-29T04:42:38.071Z,8.50
2023-03-29T04:45:08.455Z,8.50
2023-03-29T04:47:39.589Z,8.40
2023-03-29T04:50:09.044Z,8.40
2023-03-29T04:52:37.065Z,8.40
2023-03-29T04:55:07.297Z,8.40
2023-03-29T04:57:35.242Z,8.40
2023-03-29T05:00:08.252Z,8.40
2023-03-29T05:02:37.605Z,8.40
2023-03-29T05:05:05.929Z,8.40
2023-03-29T05:07:33.899Z,8.40
2023-03-29T05:10:02.010Z,8.40
2023-03-29T05:12:30.267Z,8.40
2023-03-29T05:14:58.323Z,8.40
2023-03-29T05:17:27.661Z,8.40
2023-03-29T05:19:56.982Z,8.40
2023-03-29T05:22:25.294Z,8.40
2023-03-29T05:24:53.243Z,8.40
2023-03-29T05:27:22.784Z,8.50
2023-03-29T05:29:50.695Z,8.50
2023-03-29T05:32:18.638Z,8.50
2023-03-29T05:34:46.573Z,8.60
2023-03-29T05:37:15.846Z,8.50
2023-03-29T05:39:44.083Z,8.60
2023-03-29T05:42:15.523Z,8.60
2023-03-29T05:44:43.490Z,8.60
2023-03-29T05:47:11.452Z,8.60
2023-03-29T05:49:39.387Z,8.60
2023-03-29T05:52:07.564Z,8.60
2023-03-29T05:54:36.821Z,8.60
2023-03-29T05:57:04.846Z,8.70
2023-03-29T05:59:33.729Z,8.70
2023-03-29T06:02:03.373Z,8.70
2023-03-29T06:04:31.832Z,8.70
2023-03-29T06:07:00.288Z,8.70
2023-03-29T06:09:28.270Z,8.80
2023-03-29T06:11:58.906Z,8.80
2023-03-29T06:14:27.742Z,8.80
2023-03-29T06:16:58.549Z,8.80
2023-03-29T06:19:26.697Z,8.90
2023-03-29T06:21:54.624Z,8.90
2023-03-29T06:24:22.641Z,8.90
2023-03-29T06:26:50.487Z,8.90
2023-03-29T06:29:19.959Z,9.00
2023-03-29T06:31:48.155Z,9.00
2023-03-29T06:34:17.355Z,9.10
2023-03-29T06:36:46.467Z,9.10
2023-03-29T06:39:14.461Z,9.10
2023-03-29T06:41:42.527Z,9.10
2023-03-29T06:44:10.721Z,9.10
2023-03-29T06:46:40.213Z,9.20
2023-03-29T06:49:08.144Z,9.20
2023-03-29T06:51:36.590Z,9.20
2023-03-29T06:54:05.404Z,9.30
2023-03-29T06:56:34.216Z,9.30
2023-03-29T06:59:02.510Z,9.30
2023-03-29T07:01:30.481Z,9.30
2023-03-29T07:04:04.561Z,9.40
2023-03-29T07:06:32.641Z,9.40
2023-03-29T07:09:01.781Z,9.40
2023-03-29T07:11:30.954Z,9.40
2023-03-29T07:13:59.165Z,9.50
2023-03-29T07:16:27.244Z,9.60
2023-03-29T07:18:55.382Z,9.70
2023-03-29T07:21:24.684Z,9.80
2023-03-29T07:23:53.036Z,9.80
2023-03-29T07:26:28.276Z,9.80
2023-03-29T07:28:57.230Z,9.90
2023-03-29T07:31:25.213Z,9.90
2023-03-29T07:33:53.614Z,10.00
2023-03-29T07:36:21.782Z,10.10
2023-03-29T07:38:51.129Z,10.10
2023-03-29T07:41:19.061Z,10.20
2023-03-29T07:43:47.768Z,10.30
2023-03-29T07:46:15.740Z,10.40
2023-03-29T07:48:43.682Z,10.50
2023-03-29T07:51:11.897Z,10.60
2023-03-29T07:53:39.887Z,10.60
2023-03-29T07:56:10.076Z,10.70
2023-03-29T07:58:38.518Z,10.70
2023-03-29T08:01:08.407Z,10.70
2023-03-29T08:03:36.539Z,10.70
2023-03-29T08:06:05.017Z,10.70
2023-03-29T08:08:32.988Z,10.60
2023-03-29T08:11:01.171Z,10.60
2023-03-29T08:13:30.688Z,10.60
2023-03-29T08:15:59.040Z,10.70
2023-03-29T08:18:26.979Z,10.70
2023-03-29T08:20:54.845Z,10.80
2023-03-29T08:23:22.787Z,10.90
2023-03-29T08:25:50.946Z,11.00
2023-03-29T08:28:18.997Z,11.00
2023-03-29T08:30:48.332Z,11.00
2023-03-29T08:33:16.765Z,11.10
2023-03-29T08:35:45.030Z,11.10
2023-03-29T08:38:12.979Z,11.20
2023-03-29T08:40:41.387Z,11.30
2023-03-29T08:43:22.701Z,11.40
2023-03-29T08:46:04.125Z,11.50
2023-03-29T08:48:34.800Z,11.60
2023-03-29T08:51:07.924Z,11.60
2023-03-29T08:53:44.192Z,11.60
2023-03-29T08:56:15.979Z,11.70
2023-03-29T08:58:45.715Z,11.70
2023-03-29T09:01:15.353Z,11.70
2023-03-29T09:03:48.940Z,11.70
2023-03-29T09:06:20.308Z,11.70
2023-03-29T09:08:50.753Z,11.70
2023-03-29T09:11:33.256Z,11.70
2023-03-29T09:14:13.755Z,11.70
2023-03-29T09:16:50.749Z,11.70
2023-03-29T09:19:27.689Z,11.80
2023-03-29T09:22:02.008Z,11.90
2023-03-29T09:24:55.478Z,12.00
2023-03-29T09:27:27.907Z,12.00
2023-03-29T09:30:04.649Z,12.20
2023-03-29T09:32:40.344Z,12.20
2023-03-29T09:35:18.633Z,12.30
2023-03-29T09:37:51.506Z,12.40
2023-03-29T09:40:23.631Z,12.60
2023-03-29T09:42:54.646Z,12.80
2023-03-29T09:45:23.726Z,13.10
2023-03-29T09:47:57.687Z,13.50
2023-03-29T09:50:32.055Z,13.70
2023-03-29T09:53:00.607Z,14.10
2023-03-29T09:55:32.311Z,14.30
2023-03-29T09:58:03.074Z,14.50
2023-03-29T10:00:31.069Z,14.70
2023-03-29T10:03:00.737Z,15.00
2023-03-29T10:05:31.998Z,15.10
2023-03-29T10:08:02.295Z,15.30
2023-03-29T10:10:32.868Z,15.50
2023-03-29T10:13:04.971Z,15.60
2023-03-29T10:15:32.938Z,16.30
2023-03-29T10:18:04.508Z,16.90
2023-03-29T10:20:35.513Z,17.10
2023-03-29T10:23:03.515Z,17.20
2023-03-29T10:25:33.810Z,16.90
2023-03-29T10:28:07.549Z,16.80
2023-03-29T10:30:37.909Z,16.80
2023-03-29T10:33:16.536Z,16.80
2023-03-29T10:35:44.990Z,16.50
2023-03-29T10:38:15.070Z,16.40
2023-03-29T10:40:47.417Z,16.30
2023-03-29T10:43:22.903Z,16.30
2023-03-29T10:45:52.529Z,16.20
2023-03-29T10:48:26.535Z,16.10
2023-03-29T10:50:54.653Z,16.00
2023-03-29T10:53:27.602Z,15.80
2023-03-29T10:56:07.559Z,15.70
2023-03-29T10:58:49.299Z,15.60
2023-03-29T11:01:25.661Z,15.60
2023-03-29T11:04:14.596Z,15.90
2023-03-29T11:06:52.557Z,16.20
2023-03-29T11:09:31.718Z,16.20
2023-03-29T11:12:15.583Z,16.10
2023-03-29T11:14:56.920Z,16.00
2023-03-29T11:17:36.511Z,15.90
2023-03-29T11:20:25.399Z,15.80
2023-03-29T11:23:01.199Z,15.80
2023-03-29T11:25:43.235Z,15.90
2023-03-29T11:28:18.440Z,15.90
2023-03-29T11:30:52.901Z,15.90
2023-03-29T11:33:33.754Z,15.90
2023-03-29T11:36:10.496Z,15.90
2023-03-29T11:38:45.290Z,15.90
2023-03-29T11:41:18.600Z,16.10
2023-03-29T11:43:50.500Z,16.20
2023-03-29T11:46:22.879Z,16.20
2023-03-29T11:48:54.896Z,16.30
2023-03-29T11:51:27.534Z,16.30
2023-03-29T11:54:01.993Z,16.40
2023-03-29T11:56:35.711Z,16.50
2023-03-29T11:59:09.240Z,16.60
2023-03-29T12:01:43.385Z,16.80
2023-03-29T12:04:17.738Z,16.80
2023-03-29T12:07:01.679Z,16.80
2023-03-29T12:09:35.905Z,16.80
2023-03-29T12:12:10.244Z,16.80
2023-03-29T12:14:50.902Z,16.70
2023-03-29T12:17:22.125Z,16.60
2023-03-29T12:19:54.405Z,16.50
2023-03-29T12:22:24.832Z,16.40
2023-03-29T12:24:55.170Z,16.40
2023-03-29T12:27:28.795Z,16.50
2023-03-29T12:30:21.709Z,16.50
2023-03-29T12:33:05.687Z,16.60
2023-03-29T12:35:43.132Z,16.70
2023-03-29T12:38:17.881Z,16.80
2023-03-29T12:40:48.249Z,16.80
2023-03-29T12:43:24.210Z,16.70
2023-03-29T12:45:56.146Z,16.70
2023-03-29T12:48:27.114Z,16.60
2023-03-29T12:51:00.748Z,16.50
2023-03-29T12:53:34.932Z,16.50
2023-03-29T12:56:13.932Z,16.50
2023-03-29T12:58:55.942Z,16.70
2023-03-29T13:01:29.669Z,17.00
2023-03-29T13:04:14.361Z,17.20
2023-03-29T13:07:06.018Z,17.20
2023-03-29T13:09:49.822Z,17.20
2023-03-29T13:12:25.034Z,17.10
2023-03-29T13:14:55.939Z,16.90
2023-03-29T13:17:28.206Z,16.70
2023-03-29T13:20:15.317Z,16.60
2023-03-29T13:22:54.819Z,16.60
2023-03-29T13:25:51.312Z,16.50
2023-03-29T13:28:25.084Z,16.70
2023-03-29T13:30:59.633Z,17.00
2023-03-29T13:33:57.075Z,17.10
2023-03-29T13:36:40.227Z,17.10
2023-03-29T13:39:16.276Z,17.10
2023-03-29T13:41:48.863Z,17.00
2023-03-29T13:44:27.103Z,16.90
2023-03-29T13:47:13.524Z,16.80
2023-03-29T13:49:44.334Z,16.70
2023-03-29T13:52:17.010Z,16.70
2023-03-29T13:54:51.796Z,16.70
2023-03-29T13:57:25.293Z,16.70
2023-03-29T13:59:58.778Z,16.80
2023-03-29T14:02:38.470Z,16.80
2023-03-29T14:05:12.394Z,16.80
2023-03-29T14:07:45.107Z,16.70
2023-03-29T14:10:17.082Z,16.70
2023-03-29T14:12:47.193Z,16.60
2023-03-29T14:15:24.661Z,16.50
2023-03-29T14:18:00.236Z,16.50
2023-03-29T14:20:29.879Z,16.40
2023-03-29T14:22:57.765Z,16.30
2023-03-29T14:25:25.882Z,16.20
2023-03-29T14:27:55.118Z,16.10
2023-03-29T14:30:27.413Z,15.90
2023-03-29T14:32:57.008Z,15.80
2023-03-29T14:35:32.129Z,15.70
2023-03-29T14:38:01.551Z,15.70
2023-03-29T14:40:32.055Z,15.70
2023-03-29T14:43:05.278Z,15.80
2023-03-29T14:45:33.533Z,15.80
2023-03-29T14:48:01.999Z,15.90
2023-03-29T14:50:31.514Z,15.80
2023-03-29T14:53:01.332Z,15.90
2023-03-29T14:55:30.909Z,15.90
2023-03-29T14:58:00.111Z,15.80
2023-03-29T15:00:34.967Z,15.80
2023-03-29T15:03:03.922Z,15.70
2023-03-29T15:05:36.754Z,15.70
2023-03-29T15:08:07.338Z,15.60
2023-03-29T15:10:37.260Z,15.60
2023-03-29T15:13:07.310Z,15.50
2023-03-29T15:15:39.142Z,15.50
2023-03-29T15:18:08.931Z,15.40
2023-03-29T15:20:40.377Z,15.50
2023-03-29T15:23:20.620Z,15.50
2023-03-29T15:25:52.052Z,15.60
2023-03-29T15:28:29.331Z,15.50
2023-03-29T15:33:37.142Z,15.30
2023-03-29T15:36:06.911Z,15.20
2023-03-29T15:38:43.301Z,15.20
2023-03-29T15:41:13.339Z,15.10
2023-03-29T15:43:41.510Z,15.00
2023-03-29T15:46:13.084Z,15.00
2023-03-29T15:48:41.654Z,15.00
2023-03-29T15:51:11.034Z,15.00
2023-03-29T15:53:39.208Z,14.90
2023-03-29T15:56:10.134Z,14.90
2023-03-29T15:58:38.709Z,14.90
2023-03-29T16:01:19.071Z,14.90
2023-03-29T16:03:48.098Z,14.90
2023-03-29T16:06:17.423Z,14.90
2023-03-29T16:08:46.042Z,14.90
2023-03-29T16:11:14.106Z,14.90
2023-03-29T16:13:42.079Z,14.90
2023-03-29T16:16:12.439Z,14.90
2023-03-29T16:18:40.449Z,14.90
2023-03-29T16:21:13.258Z,14.90
2023-03-29T16:23:41.625Z,14.90
2023-03-29T16:26:12.358Z,14.90
2023-03-29T16:28:40.987Z,14.80
2023-03-29T16:31:12.551Z,14.80
2023-03-29T16:33:41.363Z,14.80
2023-03-29T16:36:10.059Z,14.80
2023-03-29T16:38:38.458Z,14.80
2023-03-29T16:41:07.196Z,14.80
2023-03-29T16:43:35.375Z,14.70
2023-03-29T16:46:04.101Z,14.70
2023-03-29T16:48:33.657Z,14.70
2023-03-29T16:51:02.232Z,14.70
2023-03-29T16:53:30.277Z,14.70
2023-03-29T16:55:58.521Z,14.70
2023-03-29T16:58:27.102Z,14.70
2023-03-29T17:00:56.166Z,14.60
2023-03-29T17:03:24.515Z,14.60
2023-03-29T17:05:54.792Z,14.50
2023-03-29T17:08:23.018Z,14.50
2023-03-29T17:10:53.946Z,14.50
2023-03-29T17:13:23.664Z,14.40
2023-03-29T17:15:53.193Z,14.40
2023-03-29T17:18:21.314Z,14.30
2023-03-29T17:20:50.976Z,14.30
2023-03-29T17:23:20.414Z,14.20
2023-03-29T17:25:48.470Z,14.10
2023-03-29T17:28:16.405Z,14.10
2023-03-29T17:30:46.186Z,14.00
2023-03-29T17:33:14.625Z,14.00
2023-03-29T17:35:43.259Z,14.00
2023-03-29T17:38:11.306Z,13.90
2023-03-29T17:40:41.051Z,13.90
2023-03-29T17:43:08.952Z,13.90
2023-03-29T17:45:36.845Z,13.90
2023-03-29T17:48:06.564Z,13.90
2023-03-29T17:50:34.747Z,13.80
2023-03-29T17:53:02.749Z,13.80
2023-03-29T17:55:30.798Z,13.80
2023-03-29T17:58:00.156Z,13.70
2023-03-29T18:00:28.594Z,13.70
2023-03-29T18:02:56.542Z,13.70
2023-03-29T18:05:24.521Z,13.70
2023-03-29T18:07:52.477Z,13.70
2023-03-29T18:10:20.388Z,13.70
2023-03-29T18:12:48.253Z,13.70
2023-03-29T18:15:17.523Z,13.60
2023-03-29T18:17:45.996Z,13.60
2023-03-29T18:20:14.353Z,13.60
2023-03-29T18:22:42.785Z,13.50
2023-03-29T18:25:11.360Z,13.50
2023-03-29T18:27:39.770Z,13.40
2023-03-29T18:30:09.271Z,13.40
2023-03-29T18:32:38.591Z,13.30
2023-03-29T18:35:07.440Z,13.30
2023-03-29T18:37:36.163Z,13.30
2023-03-29T18:40:06.808Z,13.20
2023-03-29T18:42:34.917Z,13.20
2023-03-29T18:45:04.389Z,13.20
2023-03-29T18:47:32.390Z,13.10
2023-03-29T18:50:02.610Z,13.10
2023-03-29T18:52:30.519Z,13.10
2023-03-29T18:54:58.405Z,13.10
2023-03-29T18:57:26.386Z,13.00
2023-03-29T18:59:54.427Z,13.00
2023-03-29T19:02:22.435Z,13.00
2023-03-29T19:04:50.985Z,12.90
2023-03-29T19:07:21.870Z,12.90
2023-03-29T19:09:49.805Z,12.90
2023-03-29T19:12:17.746Z,12.80
2023-03-29T19:14:45.698Z,12.80
2023-03-29T19:17:13.832Z,12.70
2023-03-29T19:19:41.668Z,12.70
2023-03-29T19:22:09.589Z,12.70
2023-03-29T19:24:38.854Z,12.60
2023-03-29T19:27:09.244Z,12.60
2023-03-29T19:29:39.709Z,12.50
2023-03-29T19:32:07.683Z,12.50
2023-03-29T19:34:36.190Z,12.50
2023-03-29T19:37:04.101Z,12.50
2023-03-29T19:39:32.042Z,12.50
2023-03-29T19:42:01.279Z,12.50
2023-03-29T19:44:30.085Z,12.50
2023-03-29T19:46:58.050Z,12.40
2023-03-29T19:49:26.042Z,12.50
2023-03-29T19:51:55.546Z,12.50
2023-03-29T19:54:23.444Z,12.40
2023-03-29T19:56:52.562Z,12.40
2023-03-29T19:59:22.744Z,12.30
2023-03-29T20:01:51.723Z,12.30
2023-03-29T20:04:20.534Z,12.30
2023-03-29T20:06:48.429Z,12.30
2023-03-29T20:09:16.710Z,12.30
2023-03-29T20:11:46.717Z,12.30
2023-03-29T20:14:14.944Z,12.20
2023-03-29T20:16:44.837Z,12.20
2023-03-29T20:19:13.918Z,12.20
2023-03-29T20:21:41.917Z,12.20
2023-03-29T20:24:09.973Z,12.10
2023-03-29T20:26:38.143Z,12.10
2023-03-29T20:29:06.125Z,12.10
2023-03-29T20:31:34.090Z,12.10
2023-03-29T20:34:03.378Z,12.00
2023-03-29T20:36:31.984Z,12.00
2023-03-29T20:39:01.257Z,12.00
2023-03-29T20:41:29.420Z,11.90
2023-03-29T20:43:59.851Z,11.90
2023-03-29T20:46:33.374Z,11.90
2023-03-29T20:49:04.503Z,11.90
2023-03-29T20:51:33.044Z,11.90
2023-03-29T20:54:03.733Z,11.90
2023-03-29T20:56:32.413Z,11.90
2023-03-29T20:59:00.662Z,11.90
2023-03-29T21:01:29.557Z,11.90
2023-03-29T21:03:57.607Z,11.90
2023-03-29T21:06:26.995Z,11.90
2023-03-29T21:08:54.850Z,11.90
2023-03-29T21:11:23.081Z,11.90
2023-03-29T21:13:52.765Z,11.90
2023-03-29T21:16:21.496Z,11.90
2023-03-29T21:18:49.400Z,11.90
2023-03-29T21:21:17.453Z,11.90
2023-03-29T21:23:46.701Z,11.90
2023-03-29T21:26:14.589Z,11.90
2023-03-29T21:28:42.576Z,11.90
2023-03-29T21:31:10.675Z,11.90
2023-03-29T21:33:38.636Z,11.90
2023-03-29T21:36:08.395Z,11.90
2023-03-29T21:38:36.572Z,11.90
2023-03-29T21:41:06.817Z,11.90
2023-03-29T21:43:34.682Z,11.90
2023-03-29T21:46:02.561Z,11.90
2023-03-29T21:48:30.547Z,11.90
2023-03-29T21:50:58.430Z,11.90
2023-03-29T21:53:27.004Z,11.90
2023-03-29T21:55:55.012Z,11.90
2023-03-29T21:58:24.229Z,11.90
2023-03-29T22:00:52.174Z,11.80
2023-03-29T22:03:20.297Z,11.80
2023-03-29T22:05:57.506Z,11.90
2023-03-29T22:08:26.351Z,11.80
2023-03-29T22:10:56.765Z,11.80
2023-03-29T22:13:28.232Z,11.80
2023-03-29T22:15:58.636Z,11.80
2023-03-29T22:18:28.031Z,11.80
2023-03-29T22:20:56.036Z,11.80
2023-03-29T22:23:24.825Z,11.70
2023-03-29T22:25:52.825Z,11.70
2023-03-29T22:28:20.717Z,11.70
2023-03-29T22:30:49.973Z,11.70
2023-03-29T22:33:17.792Z,11.70
2023-03-29T22:35:45.925Z,11.60
2023-03-29T22:38:13.821Z,11.60
2023-03-29T22:40:41.731Z,11.60
2023-03-29T22:43:09.716Z,11.60
2023-03-29T22:45:37.721Z,11.60
2023-03-29T22:48:07.370Z,11.60
2023-03-29T22:50:35.353Z,11.60
2023-03-29T22:53:03.255Z,11.50
2023-03-29T22:55:31.154Z,11.50
2023-03-29T22:57:59.081Z,11.50
2023-03-29T23:00:27.252Z,11.50
2023-03-29T23:02:55.349Z,11.50
2023-03-29T23:05:24.847Z,11.60
2023-03-29T23:07:52.751Z,11.50
2023-03-29T23:10:20.815Z,11.60
2023-03-29T23:12:49.663Z,11.50
2023-03-29T23:15:17.948Z,11.60
2023-03-29T23:17:45.925Z,11.60
2023-03-29T23:20:14.168Z,11.60
2023-03-29T23:22:43.717Z,11.60
2023-03-29T23:25:11.927Z,11.60
2023-03-29T23:27:39.784Z,11.60
2023-03-29T23:30:09.015Z,11.70
2023-03-29T23:32:36.907Z,11.70
2023-03-29T23:35:06.092Z,11.60
2023-03-29T23:37:33.979Z,11.60
2023-03-29T23:40:07.759Z,11.60
2023-03-29T23:42:37.011Z,11.60
2023-03-29T23:45:05.586Z,11.60
2023-03-29T23:47:33.470Z,11.60
2023-03-29T23:50:02.761Z,11.60
2023-03-29T23:52:32.539Z,11.60
2023-03-29T23:55:00.657Z,11.60
2023-03-29T23:57:30.180Z,11.70
